Time;durP1;ratioP1;P1;durP2;ratioP2;P2;SDS_P1;SDS_P2;PMS_P1;PMS_P2;Temp;Humidity;BMP_temperature;BMP_pressure;BME280_temperature;BME280_humidity;BME280_pressure;Samples;Min_cycle;Max_cycle;Signal;HPM_P1;HPM_P2
2022/04/07 00:01:48;;;;;;;;;;;;;;;-0.22;75.26;97977.16;5072178;28;19928;-60
2022/04/07 00:04:14;;;;;;;;;;;;;;;-0.23;75.33;97978.97;5089023;28;19931;-62
2022/04/07 00:06:39;;;;;;;;;;;;;;;-0.19;75.46;97982.75;5093454;28;20316;-60
2022/04/07 00:09:05;;;;;;;;;;;;;;;-0.10;74.61;97984.16;5093674;28;19928;-61
2022/04/07 00:11:31;;;;;;;;;;;;;;;-0.05;74.41;97979.13;5093885;28;20396;-60
2022/04/07 00:13:56;;;;;;;;;;;;;;;-0.02;74.50;97983.94;5093463;28;20022;-62
2022/04/07 00:16:22;;;;;;;;;;;;;;;0.03;74.60;97983.34;5093756;28;19931;-60
2022/04/07 00:18:47;;;;;;;;;;;;;;;-0.06;74.42;97989.75;5092259;28;20198;-60
2022/04/07 00:21:24;;;;;;;;;;;;;;;-0.02;74.49;97988.34;5092196;28;20426;-59
2022/04/07 00:23:51;;;;;;;;;;;;;;;-0.03;74.36;97984.94;5074832;28;19994;-60
2022/04/07 00:26:16;;;;;;;;;;;;;;;-0.01;74.85;97990.75;5092287;28;20189;-61
2022/04/07 00:28:41;;;;;;;;;;;;;;;0.03;74.19;97990.34;5091900;28;19980;-59
2022/04/07 00:31:07;;;;;;;;;;;;;;;-0.01;73.99;97993.34;5093473;28;19924;-59
2022/04/07 00:33:33;;;;;;;;;;;;;;;-0.01;74.93;97990.75;5092775;28;19928;-61
2022/04/07 00:35:59;;;;;;;;;;;;;;;-0.15;75.34;97993.56;5093223;28;19930;-58
2022/04/07 00:38:24;;;;;;;;;;;;;;;-0.09;74.92;97985.78;5092767;28;19928;-60
2022/04/07 00:40:50;;;;;;;;;;;;;;;-0.07;75.03;97993.38;5093426;28;19950;-60
2022/04/07 00:43:29;;;;;;;;;;;;;;;-0.03;74.43;97991.94;5092931;28;19935;-60
2022/04/07 00:45:54;;;;;;;;;;;;;;;-0.07;74.76;97988.94;5093222;28;19932;-60
2022/04/07 00:48:20;;;;;;;;;;;;;;;-0.06;75.11;97979.31;5091486;28;19928;-58
2022/04/07 00:50:46;;;;;;;;;;;;;;;-0.09;74.98;97987.56;5093053;28;19928;-60
2022/04/07 00:53:11;;;;;;;;;;;;;;;-0.01;74.79;97992.56;5091524;28;19927;-61
2022/04/07 00:55:37;;;;;;;;;;;;;;;0.05;73.92;97981.31;5091515;28;20311;-58
2022/04/07 00:58:02;;;;;;;;;;;;;;;0.05;74.56;97985.72;5092315;28;19928;-60
2022/04/07 01:00:30;;;;;;;;;;;;;;;0.04;74.13;97986.75;5092957;28;19973;-60
2022/04/07 01:02:55;;;;;;;;;;;;;;;0.08;74.12;97978.28;5091085;28;20320;-60
2022/04/07 01:05:23;;;;;;;;;;;;;;;0.09;74.24;97969.50;5091235;28;19968;-59
2022/04/07 01:07:49;;;;;;;;;;;;;;;0.13;73.96;97975.88;5092439;28;19986;-61
2022/04/07 01:10:14;;;;;;;;;;;;;;;0.10;74.05;97971.09;5091106;28;19977;-60
2022/04/07 01:12:39;;;;;;;;;;;;;;;0.12;74.19;97978.69;5091320;28;19990;-59
2022/04/07 01:15:06;;;;;;;;;;;;;;;0.14;74.55;97982.69;5092013;28;19924;-59
2022/04/07 01:17:31;;;;;;;;;;;;;;;0.19;73.92;97977.66;5073524;28;19932;-59
2022/04/07 01:19:57;;;;;;;;;;;;;;;0.12;74.26;97979.50;5074242;28;20076;-59
2022/04/07 01:22:22;;;;;;;;;;;;;;;0.21;73.87;97978.28;5092025;28;19928;-58
2022/04/07 01:24:48;;;;;;;;;;;;;;;0.18;74.19;97978.69;5092495;28;19949;-60
2022/04/07 01:27:13;;;;;;;;;;;;;;;0.18;73.99;97977.91;5092352;28;19928;-60
2022/04/07 01:29:39;;;;;;;;;;;;;;;0.24;74.28;97982.28;5092009;28;19931;-61
2022/04/07 01:32:08;;;;;;;;;;;;;;;0.18;73.80;97978.69;5091937;28;19923;-58
2022/04/07 01:34:34;;;;;;;;;;;;;;;0.06;74.55;97980.31;5090979;28;19985;-63
2022/04/07 01:36:59;;;;;;;;;;;;;;;0.01;74.44;97977.53;5090705;28;20388;-59
2022/04/07 01:39:27;;;;;;;;;;;;;;;0.08;75.04;97983.50;5090251;28;20317;-59
2022/04/07 01:41:52;;;;;;;;;;;;;;;0.13;74.56;97981.09;5091570;28;20306;-60
2022/04/07 01:44:18;;;;;;;;;;;;;;;0.06;75.13;97975.13;5090734;28;19939;-61
2022/04/07 01:46:43;;;;;;;;;;;;;;;0.08;75.09;97977.50;5092285;28;20343;-59
2022/04/07 01:49:09;;;;;;;;;;;;;;;0.11;75.17;97972.69;5090482;28;19928;-61
2022/04/07 01:51:35;;;;;;;;;;;;;;;0.14;74.68;97968.88;5090705;28;19967;-60
2022/04/07 01:54:01;;;;;;;;;;;;;;;0.15;74.15;97966.06;5091476;28;19937;-62
2022/04/07 01:56:26;;;;;;;;;;;;;;;0.17;74.11;97973.66;5092243;28;19932;-61
2022/04/07 01:58:53;;;;;;;;;;;;;;;0.12;74.23;97973.47;5091580;28;19932;-61
2022/04/07 02:01:18;;;;;;;;;;;;;;;0.13;74.60;97967.28;5090772;28;19920;-60
2022/04/07 02:03:45;;;;;;;;;;;;;;;0.18;74.19;97976.09;5091719;28;19951;-59
2022/04/07 02:06:14;;;;;;;;;;;;;;;0.19;74.20;97969.06;5091914;28;19924;-60
2022/04/07 02:08:40;;;;;;;;;;;;;;;0.22;74.59;97973.84;5091754;28;20404;-60
2022/04/07 02:11:06;;;;;;;;;;;;;;;0.22;74.57;97976.47;5091611;28;19924;-60
2022/04/07 02:13:32;;;;;;;;;;;;;;;0.28;74.23;97973.03;5091553;28;20035;-60
2022/04/07 02:15:58;;;;;;;;;;;;;;;0.24;74.22;97971.84;5091896;28;19924;-60
2022/04/07 02:18:23;;;;;;;;;;;;;;;0.28;74.45;97973.03;5091655;28;20019;-61
2022/04/07 02:20:49;;;;;;;;;;;;;;;0.28;74.51;97973.03;5091927;28;19970;-61
2022/04/07 02:23:14;;;;;;;;;;;;;;;0.22;74.35;97969.44;5091719;28;19928;-63
2022/04/07 02:25:40;;;;;;;;;;;;;;;0.12;74.86;97971.69;5089835;28;20347;-61
2022/04/07 02:28:05;;;;;;;;;;;;;;;0.19;75.18;97972.47;5094388;28;19935;-60
2022/04/07 02:30:31;;;;;;;;;;;;;;;0.20;74.65;97971.44;5094259;28;19927;-60
2022/04/07 02:32:56;;;;;;;;;;;;;;;0.30;74.81;97972.84;5095753;28;19932;-61
2022/04/07 02:35:22;;;;;;;;;;;;;;;0.31;74.92;97969.22;5094071;28;19920;-60
2022/04/07 02:37:47;;;;;;;;;;;;;;;0.39;74.41;97967.19;5095416;28;19928;-61
2022/04/07 02:40:13;;;;;;;;;;;;;;;0.42;74.19;97977.19;5095106;28;19927;-59
2022/04/07 02:42:39;;;;;;;;;;;;;;;0.45;74.37;97970.78;5095365;28;19927;-61
2022/04/07 02:45:05;;;;;;;;;;;;;;;0.52;74.04;97965.53;5094948;28;20265;-61
2022/04/07 02:47:31;;;;;;;;;;;;;;;0.52;74.19;97965.53;5093923;28;19936;-62
2022/04/07 02:49:57;;;;;;;;;;;;;;;0.53;74.14;97969.72;5094926;28;19936;-60
2022/04/07 02:52:22;;;;;;;;;;;;;;;0.57;73.49;97979.53;5094963;28;20336;-61
2022/04/07 02:54:48;;;;;;;;;;;;;;;0.60;73.77;97983.56;5095008;28;19932;-59
2022/04/07 02:57:13;;;;;;;;;;;;;;;0.59;74.16;97980.16;5095021;28;19979;-62
2022/04/07 02:59:39;;;;;;;;;;;;;;;0.58;74.41;97982.94;5093781;28;19924;-61
2022/04/07 03:02:05;;;;;;;;;;;;;;;0.61;73.68;97987.75;5094769;28;19928;-61
2022/04/07 03:04:30;;;;;;;;;;;;;;;0.59;74.27;97985.38;5094678;28;19931;-61
2022/04/07 03:06:56;;;;;;;;;;;;;;;0.64;74.04;97988.13;5093845;28;19947;-60
2022/04/07 03:09:21;;;;;;;;;;;;;;;0.78;73.53;97994.09;5094823;28;19935;-61
2022/04/07 03:11:47;;;;;;;;;;;;;;;0.84;73.71;97990.66;5094871;28;19961;-60
2022/04/07 03:14:13;;;;;;;;;;;;;;;0.90;73.52;97994.22;5095024;28;19920;-61
2022/04/07 03:16:38;;;;;;;;;;;;;;;0.94;72.83;97989.38;5093504;28;19927;-60
2022/04/07 03:19:04;;;;;;;;;;;;;;;0.98;72.90;97988.78;5094484;28;19935;-61
2022/04/07 03:21:29;;;;;;;;;;;;;;;0.90;72.70;97975.97;5094808;28;19924;-61
2022/04/07 03:23:55;;;;;;;;;;;;;;;0.87;73.43;97974.56;5094378;28;19928;-60
2022/04/07 03:26:20;;;;;;;;;;;;;;;0.86;73.69;97967.75;5092807;28;19924;-60
2022/04/07 03:28:46;;;;;;;;;;;;;;;0.90;73.58;97966.31;5094769;28;20358;-60
2022/04/07 03:31:11;;;;;;;;;;;;;;;1.00;73.27;97962.44;5094370;28;20324;-62
2022/04/07 03:33:37;;;;;;;;;;;;;;;1.03;73.06;97964.63;5094560;28;19991;-60
2022/04/07 03:36:02;;;;;;;;;;;;;;;1.05;73.02;97960.03;5092845;28;19946;-61
2022/04/07 03:38:28;;;;;;;;;;;;;;;1.09;72.90;97967.22;5092398;28;19935;-62
2022/04/07 03:40:53;;;;;;;;;;;;;;;1.23;73.23;97961.91;5094139;28;19927;-61
2022/04/07 03:43:19;;;;;;;;;;;;;;;1.17;72.48;97954.91;5094175;28;19936;-62
2022/04/07 03:45:44;;;;;;;;;;;;;;;1.29;72.57;97961.06;5093956;28;20372;-62
2022/04/07 03:48:10;;;;;;;;;;;;;;;1.42;72.42;97957.56;5094050;28;19928;-63
2022/04/07 03:50:36;;;;;;;;;;;;;;;1.50;72.08;97959.88;5094109;28;20010;-62
2022/04/07 03:53:01;;;;;;;;;;;;;;;1.49;71.87;97950.47;5093997;28;20031;-60
2022/04/07 03:55:27;;;;;;;;;;;;;;;1.52;71.38;97956.03;5093784;28;20565;-59
2022/04/07 03:57:53;;;;;;;;;;;;;;;1.68;71.81;97953.94;5094077;28;19924;-61
2022/04/07 04:00:19;;;;;;;;;;;;;;;1.80;71.49;97958.22;5093724;28;19923;-61
2022/04/07 04:02:45;;;;;;;;;;;;;;;1.91;70.72;97956.72;5094041;28;19935;-59
2022/04/07 04:05:11;;;;;;;;;;;;;;;1.95;70.48;97964.91;5093617;28;19924;-59
2022/04/07 04:07:37;;;;;;;;;;;;;;;1.98;69.80;97965.28;5093898;28;20293;-61
2022/04/07 04:10:03;;;;;;;;;;;;;;;1.94;70.25;97953.66;5092293;28;19924;-62
2022/04/07 04:12:28;;;;;;;;;;;;;;;2.11;70.01;97960.94;5093702;28;20343;-62
2022/04/07 04:14:54;;;;;;;;;;;;;;;2.27;69.44;97957.75;5093375;28;20297;-61
2022/04/07 04:17:19;;;;;;;;;;;;;;;2.25;69.13;97954.53;5093447;28;19935;-62
2022/04/07 04:19:45;;;;;;;;;;;;;;;2.31;68.52;97956.28;5092557;28;19924;-61
2022/04/07 04:22:10;;;;;;;;;;;;;;;2.27;68.57;97952.50;5091931;28;19927;-60
2022/04/07 04:24:36;;;;;;;;;;;;;;;2.39;68.46;97948.13;5092892;28;20066;-60
2022/04/07 04:27:01;;;;;;;;;;;;;;;2.50;69.34;97941.38;5092878;28;20027;-61
2022/04/07 04:29:27;;;;;;;;;;;;;;;2.44;68.36;97940.44;5093370;28;19928;-60
2022/04/07 04:31:53;;;;;;;;;;;;;;;2.62;67.89;97947.47;5091452;28;19934;-60
2022/04/07 04:34:18;;;;;;;;;;;;;;;2.54;67.74;97945.13;5093066;28;19924;-62
2022/04/07 04:36:43;;;;;;;;;;;;;;;2.72;67.71;97934.63;5093221;28;19924;-61
2022/04/07 04:39:09;;;;;;;;;;;;;;;2.83;67.36;97937.53;5093290;28;19928;-62
2022/04/07 04:41:34;;;;;;;;;;;;;;;3.00;65.96;97951.56;5093112;28;19924;-60
2022/04/07 04:44:00;;;;;;;;;;;;;;;2.96;66.31;97940.72;5092664;28;20418;-61
2022/04/07 04:46:26;;;;;;;;;;;;;;;3.11;66.83;97953.41;5092964;28;19978;-61
2022/04/07 04:48:52;;;;;;;;;;;;;;;3.27;65.62;97951.97;5093078;28;20023;-60
2022/04/07 04:51:18;;;;;;;;;;;;;;;3.39;65.52;97958.03;5092785;28;19970;-61
2022/04/07 04:53:43;;;;;;;;;;;;;;;3.49;65.23;97944.38;5091724;28;19934;-62
2022/04/07 04:56:09;;;;;;;;;;;;;;;3.59;63.69;97952.47;5092773;28;20395;-60
2022/04/07 04:58:34;;;;;;;;;;;;;;;3.72;63.73;97948.03;5086091;28;20445;-60
2022/04/07 05:00:59;;;;;;;;;;;;;;;3.66;62.55;97957.59;5077976;28;19943;-60
2022/04/07 05:03:25;;;;;;;;;;;;;;;3.64;61.81;97954.41;5092547;28;19928;-61
2022/04/07 05:05:50;;;;;;;;;;;;;;;3.79;63.84;97961.81;5082684;28;19924;-61
2022/04/07 05:08:18;;;;;;;;;;;;;;;3.83;62.96;97955.09;5072195;28;20351;-60
2022/04/07 05:10:43;;;;;;;;;;;;;;;3.83;63.58;97958.50;5070160;28;19920;-60
2022/04/07 05:13:09;;;;;;;;;;;;;;;3.87;62.99;97964.88;5072295;28;19934;-63
2022/04/07 05:15:36;;;;;;;;;;;;;;;4.00;64.41;97960.41;5074167;28;19924;-61
2022/04/07 05:18:01;;;;;;;;;;;;;;;3.92;64.53;97958.16;5090899;28;19928;-59
2022/04/07 05:20:27;;;;;;;;;;;;;;;3.87;64.87;97953.59;5091998;28;21540;-59
2022/04/07 05:22:52;;;;;;;;;;;;;;;3.84;64.91;97961.94;5091883;28;19924;-60
2022/04/07 05:25:18;;;;;;;;;;;;;;;3.71;65.61;97962.97;5079291;28;20337;-59
2022/04/07 05:27:45;;;;;;;;;;;;;;;3.77;66.48;97956.81;5073521;28;19928;-61
2022/04/07 05:30:15;;;;;;;;;;;;;;;3.71;66.96;97956.94;5071327;28;19950;-58
2022/04/07 05:32:44;;;;;;;;;;;;;;;3.77;66.28;97959.44;5072677;28;19932;-61
2022/04/07 05:35:11;;;;;;;;;;;;;;;3.93;65.16;97949.28;5071676;28;19930;-60
2022/04/07 05:37:36;;;;;;;;;;;;;;;3.88;65.85;97944.69;5091564;28;19928;-63
2022/04/07 05:40:02;;;;;;;;;;;;;;;3.78;66.26;97945.28;5079072;28;19925;-61
2022/04/07 05:42:28;;;;;;;;;;;;;;;3.86;64.58;97925.81;5079007;28;20428;-60
2022/04/07 05:44:54;;;;;;;;;;;;;;;3.79;65.50;97931.16;5071463;28;19928;-59
2022/04/07 05:47:19;;;;;;;;;;;;;;;3.95;65.73;97923.63;5073074;28;19940;-59
2022/04/07 05:49:45;;;;;;;;;;;;;;;4.17;65.72;97915.94;5071048;28;20022;-59
2022/04/07 05:52:10;;;;;;;;;;;;;;;4.00;65.47;97919.28;5080985;28;19935;-60
2022/04/07 05:54:36;;;;;;;;;;;;;;;4.25;66.41;97918.22;5071718;28;20030;-58
2022/04/07 05:57:01;;;;;;;;;;;;;;;4.21;64.54;97915.25;5070927;28;19960;-60
2022/04/07 05:59:27;;;;;;;;;;;;;;;4.14;65.11;97905.91;5071286;28;20005;-58
2022/04/07 06:01:52;;;;;;;;;;;;;;;4.16;65.86;97904.66;5074701;28;20070;-59
2022/04/07 06:04:18;;;;;;;;;;;;;;;4.19;65.46;97906.81;5059194;28;19925;-60
2022/04/07 06:06:44;;;;;;;;;;;;;;;4.08;66.00;97894.53;5079432;28;19925;-60
2022/04/07 06:09:09;;;;;;;;;;;;;;;3.98;66.42;97904.81;5078317;28;20343;-60
2022/04/07 06:11:35;;;;;;;;;;;;;;;3.95;66.23;97897.41;5068248;28;19951;-59
2022/04/07 06:14:00;;;;;;;;;;;;;;;4.04;66.98;97890.78;5072682;28;19935;-59
2022/04/07 06:16:26;;;;;;;;;;;;;;;4.12;66.19;97886.97;5073783;28;19964;-59
2022/04/07 06:18:52;;;;;;;;;;;;;;;4.05;66.16;97882.66;5072064;28;19929;-58
2022/04/07 06:21:18;;;;;;;;;;;;;;;4.07;67.72;97880.63;5073775;28;19978;-58
2022/04/07 06:23:43;;;;;;;;;;;;;;;4.14;65.24;97872.63;5072467;28;19975;-60
2022/04/07 06:26:09;;;;;;;;;;;;;;;3.99;66.41;97867.88;5050521;28;20446;-61
2022/04/07 06:28:35;;;;;;;;;;;;;;;3.98;67.68;97863.66;5070602;28;19955;-56
2022/04/07 06:31:00;;;;;;;;;;;;;;;3.92;66.70;97864.59;5069682;28;20022;-59
2022/04/07 06:33:25;;;;;;;;;;;;;;;3.78;66.74;97865.88;5072215;28;20313;-59
2022/04/07 06:35:51;;;;;;;;;;;;;;;3.66;67.35;97865.88;5072434;28;20001;-61
2022/04/07 06:38:17;;;;;;;;;;;;;;;3.53;68.41;97861.69;5072777;28;19933;-59
2022/04/07 06:40:43;;;;;;;;;;;;;;;3.36;69.08;97866.00;5072139;28;20331;-60
2022/04/07 06:43:08;;;;;;;;;;;;;;;3.35;69.72;97862.59;5072313;28;20064;-59
2022/04/07 06:45:34;;;;;;;;;;;;;;;3.42;70.48;97860.66;5072731;28;20389;-58
2022/04/07 06:47:59;;;;;;;;;;;;;;;3.38;70.58;97869.19;5075618;28;20205;-60
2022/04/07 06:50:25;;;;;;;;;;;;;;;3.50;70.35;97856.91;5074148;28;19982;-58
2022/04/07 06:52:51;;;;;;;;;;;;;;;3.54;69.39;97854.63;5074255;28;20030;-61
2022/04/07 06:55:18;;;;;;;;;;;;;;;3.60;69.84;97849.25;5073022;28;20470;-59
2022/04/07 06:57:54;;;;;;;;;;;;;;;3.54;69.18;97847.53;5074517;28;20417;-60
2022/04/07 07:00:21;;;;;;;;;;;;;;;3.47;69.29;97844.25;5071842;28;20032;-59
2022/04/07 07:02:52;;;;;;;;;;;;;;;3.38;69.59;97841.19;5074565;28;19931;-59
2022/04/07 07:05:17;;;;;;;;;;;;;;;3.38;70.27;97843.81;5033622;28;20321;-59
2022/04/07 07:07:43;;;;;;;;;;;;;;;3.37;70.02;97842.19;5069559;28;20404;-62
2022/04/07 07:10:09;;;;;;;;;;;;;;;3.30;69.91;97841.53;5074857;28;19929;-59
2022/04/07 07:12:34;;;;;;;;;;;;;;;3.37;70.89;97847.44;5023709;28;20160;-58
2022/04/07 07:15:00;;;;;;;;;;;;;;;3.57;69.96;97854.94;5069339;28;19928;-59
2022/04/07 07:17:33;;;;;;;;;;;;;;;3.63;68.59;97851.41;5068648;28;19931;-60
2022/04/07 07:20:02;;;;;;;;;;;;;;;3.69;68.89;97847.06;5066879;28;19928;-59
2022/04/07 07:22:28;;;;;;;;;;;;;;;3.71;69.69;97845.03;5070859;28;19931;-61
2022/04/07 07:24:54;;;;;;;;;;;;;;;3.84;69.09;97847.38;5069263;28;19928;-59
2022/04/07 07:27:19;;;;;;;;;;;;;;;3.91;69.24;97844.63;5066656;28;19924;-58
2022/04/07 07:29:45;;;;;;;;;;;;;;;3.77;69.63;97836.25;5070993;28;20274;-61
2022/04/07 07:32:10;;;;;;;;;;;;;;;3.67;69.41;97841.25;5073280;28;20022;-60
2022/04/07 07:34:36;;;;;;;;;;;;;;;3.75;69.00;97830.44;5063111;28;19970;-62
2022/04/07 07:37:03;;;;;;;;;;;;;;;3.76;69.30;97839.88;5070831;28;19928;-61
2022/04/07 07:39:29;;;;;;;;;;;;;;;3.76;69.51;97837.25;5053413;28;20328;-61
2022/04/07 07:41:54;;;;;;;;;;;;;;;3.98;69.36;97832.19;5069358;28;19924;-61
2022/04/07 07:44:20;;;;;;;;;;;;;;;4.13;69.60;97826.44;5088448;28;20281;-61
2022/04/07 07:46:45;;;;;;;;;;;;;;;4.19;69.07;97828.13;5087736;28;19972;-60
2022/04/07 07:49:10;;;;;;;;;;;;;;;4.24;68.46;97830.06;5048004;28;19929;-61
2022/04/07 07:51:37;;;;;;;;;;;;;;;4.28;70.11;97813.59;5051549;28;20066;-59
2022/04/07 07:54:03;;;;;;;;;;;;;;;4.43;68.76;97820.94;5082658;28;20019;-61
2022/04/07 07:56:29;;;;;;;;;;;;;;;4.28;68.22;97813.59;5092310;28;20018;-62
2022/04/07 07:58:54;;;;;;;;;;;;;;;4.36;68.78;97809.81;5090124;28;20031;-63
2022/04/07 08:01:19;;;;;;;;;;;;;;;4.33;69.14;97810.28;5084827;28;19928;-61
2022/04/07 08:03:45;;;;;;;;;;;;;;;4.48;68.91;97815.00;5070775;28;20053;-62
2022/04/07 08:06:11;;;;;;;;;;;;;;;4.58;68.54;97807.28;5069221;28;20393;-61
2022/04/07 08:08:36;;;;;;;;;;;;;;;4.49;68.42;97811.34;5082184;28;20023;-61
2022/04/07 08:11:02;;;;;;;;;;;;;;;4.37;68.86;97806.16;5048666;28;20242;-61
2022/04/07 08:13:27;;;;;;;;;;;;;;;4.33;69.37;97800.59;5063998;28;19968;-61
2022/04/07 08:15:53;;;;;;;;;;;;;;;4.42;69.21;97802.84;5070904;28;19967;-62
2022/04/07 08:18:18;;;;;;;;;;;;;;;4.58;69.62;97793.38;5080835;28;19940;-61
2022/04/07 08:20:44;;;;;;;;;;;;;;;4.80;70.97;97798.75;5075510;28;19924;-60
2022/04/07 08:23:09;;;;;;;;;;;;;;;4.78;68.16;97799.75;5070933;28;20011;-59
2022/04/07 08:25:35;;;;;;;;;;;;;;;4.63;68.59;97789.03;5068444;28;19924;-59
2022/04/07 08:28:00;;;;;;;;;;;;;;;4.45;70.24;97784.78;5078364;28;19924;-60
2022/04/07 08:30:26;;;;;;;;;;;;;;;4.31;69.72;97775.63;5074767;28;19935;-61
2022/04/07 08:32:51;;;;;;;;;;;;;;;4.27;71.93;97775.31;5075084;28;19920;-59
2022/04/07 08:35:17;;;;;;;;;;;;;;;4.58;71.69;97772.38;5069623;28;19939;-61
2022/04/07 08:37:42;;;;;;;;;;;;;;;4.65;68.63;97771.22;5072917;28;19931;-60
2022/04/07 08:40:08;;;;;;;;;;;;;;;4.72;69.64;97761.34;5088544;28;20045;-64
2022/04/07 08:42:34;;;;;;;;;;;;;;;4.62;69.99;97752.50;5088054;28;19923;-63
2022/04/07 08:45:00;;;;;;;;;;;;;;;4.42;70.34;97756.41;5064445;28;20401;-62
2022/04/07 08:47:25;;;;;;;;;;;;;;;4.53;71.76;97760.78;5068499;28;19978;-62
2022/04/07 08:49:51;;;;;;;;;;;;;;;4.74;71.24;97742.75;5089965;28;19928;-63
2022/04/07 08:52:16;;;;;;;;;;;;;;;4.56;68.93;97735.91;5089798;28;19923;-59
2022/04/07 08:54:44;;;;;;;;;;;;;;;4.53;70.96;97744.25;5089931;28;20347;-61
2022/04/07 08:57:09;;;;;;;;;;;;;;;4.49;69.96;97730.00;5088372;28;20014;-62
2022/04/07 08:59:35;;;;;;;;;;;;;;;4.43;70.21;97731.75;5070018;28;20011;-63
2022/04/07 09:02:04;;;;;;;;;;;;;;;4.38;70.93;97726.41;5088493;28;19924;-60
2022/04/07 09:04:31;;;;;;;;;;;;;;;4.24;71.63;97730.41;5073401;28;19932;-61
2022/04/07 09:06:58;;;;;;;;;;;;;;;4.09;72.24;97729.09;5067005;28;20300;-61
2022/04/07 09:09:24;;;;;;;;;;;;;;;4.11;72.30;97731.47;5068881;28;19925;-58
2022/04/07 09:11:54;;;;;;;;;;;;;;;4.11;72.21;97736.72;5028384;28;19924;-58
2022/04/07 09:14:20;;;;;;;;;;;;;;;4.12;72.59;97743.56;5074238;28;20480;-60
2022/04/07 09:16:45;;;;;;;;;;;;;;;4.16;73.43;97744.69;5085635;28;20050;-61
2022/04/07 09:19:11;;;;;;;;;;;;;;;4.22;73.09;97742.94;5067632;28;20388;-61
2022/04/07 09:21:36;;;;;;;;;;;;;;;4.30;73.21;97740.72;5087030;28;19961;-60
2022/04/07 09:24:05;;;;;;;;;;;;;;;4.49;74.26;97727.38;5078408;28;19924;-63
2022/04/07 09:26:31;;;;;;;;;;;;;;;4.48;72.37;97726.59;5067126;28;19937;-60
2022/04/07 09:28:57;;;;;;;;;;;;;;;4.37;72.16;97716.97;5066368;28;19932;-58
2022/04/07 09:31:23;;;;;;;;;;;;;;;4.39;73.25;97725.41;5066504;28;19935;-61
2022/04/07 09:33:56;;;;;;;;;;;;;;;4.47;72.85;97730.25;5067709;28;20444;-61
2022/04/07 09:36:22;;;;;;;;;;;;;;;4.55;73.02;97726.44;5063756;28;19928;-60
2022/04/07 09:38:52;;;;;;;;;;;;;;;4.59;72.50;97724.09;5067013;28;19947;-63
2022/04/07 09:41:19;;;;;;;;;;;;;;;4.67;73.92;97713.22;5066895;28;19936;-60
2022/04/07 09:43:45;;;;;;;;;;;;;;;4.75;72.84;97715.44;5074216;28;19924;-63
2022/04/07 09:46:11;;;;;;;;;;;;;;;4.72;72.84;97711.47;5065451;28;20486;-61
2022/04/07 09:48:37;;;;;;;;;;;;;;;4.60;72.99;97702.88;5073428;28;19928;-62
2022/04/07 09:51:09;;;;;;;;;;;;;;;4.65;73.57;97708.22;5071142;28;20400;-61
2022/04/07 09:53:36;;;;;;;;;;;;;;;4.75;74.30;97708.34;5065729;28;20396;-61
2022/04/07 09:56:02;;;;;;;;;;;;;;;4.74;73.14;97711.25;5065942;28;19951;-60
2022/04/07 09:58:28;;;;;;;;;;;;;;;4.70;73.57;97699.63;5066540;28;20388;-61
2022/04/07 10:00:53;;;;;;;;;;;;;;;4.92;73.58;97703.09;5066481;28;19936;-61
2022/04/07 10:03:19;;;;;;;;;;;;;;;5.10;72.44;97698.59;5054397;28;19985;-64
2022/04/07 10:05:44;;;;;;;;;;;;;;;5.07;72.81;97704.34;5037260;28;20397;-62
2022/04/07 10:08:10;;;;;;;;;;;;;;;5.06;72.21;97690.41;5070989;28;19970;-62
2022/04/07 10:10:35;;;;;;;;;;;;;;;5.08;72.59;97693.56;5071434;28;19963;-61
2022/04/07 10:13:01;;;;;;;;;;;;;;;4.98;72.62;97703.97;5089680;28;19931;-60
2022/04/07 10:15:26;;;;;;;;;;;;;;;5.14;73.03;97692.59;5051731;28;20257;-59
2022/04/07 10:17:52;;;;;;;;;;;;;;;5.21;71.53;97687.97;5068541;28;19928;-59
2022/04/07 10:20:18;;;;;;;;;;;;;;;5.20;72.45;97701.34;5068162;28;19928;-58
2022/04/07 10:22:43;;;;;;;;;;;;;;;5.14;72.25;97695.22;5066277;28;19930;-60
2022/04/07 10:25:09;;;;;;;;;;;;;;;5.18;72.90;97690.31;5085184;28;19928;-60
2022/04/07 10:27:37;;;;;;;;;;;;;;;5.27;72.62;97690.69;5051160;28;19924;-64
2022/04/07 10:30:08;;;;;;;;;;;;;;;5.36;72.64;97689.19;5085026;28;19950;-60
2022/04/07 10:32:35;;;;;;;;;;;;;;;5.30;71.10;97695.44;5071043;28;20341;-59
2022/04/07 10:35:00;;;;;;;;;;;;;;;5.21;71.27;97690.59;5089169;28;19935;-60
2022/04/07 10:37:29;;;;;;;;;;;;;;;5.22;72.92;97692.19;5069048;28;19928;-59
2022/04/07 10:39:54;;;;;;;;;;;;;;;5.19;72.53;97694.50;5087165;28;20419;-58
2022/04/07 10:42:40;;;;;;;;;;;;;;;5.23;71.92;97696.41;5070787;28;19928;-58
2022/04/07 10:45:06;;;;;;;;;;;;;;;5.21;72.85;97695.06;5088441;28;20437;-59
2022/04/07 10:47:31;;;;;;;;;;;;;;;5.37;73.00;97698.66;5078526;28;19971;-60
2022/04/07 10:49:57;;;;;;;;;;;;;;;5.39;72.04;97693.97;5070279;28;19933;-60
2022/04/07 10:52:26;;;;;;;;;;;;;;;5.59;72.18;97691.56;5069720;28;19931;-59
2022/04/07 10:55:13;;;;;;;;;;;;;;;5.59;71.49;97698.63;5072566;28;19950;-60
2022/04/07 10:57:57;;;;;;;;;;;;;;;5.62;72.48;97688.44;5052589;28;19970;-61
2022/04/07 11:00:37;;;;;;;;;;;;;;;5.64;72.23;97677.69;5050797;28;20030;-59
2022/04/07 11:03:12;;;;;;;;;;;;;;;5.84;72.54;97682.34;5052276;28;19924;-59
2022/04/07 11:05:52;;;;;;;;;;;;;;;6.08;71.35;97673.13;5090215;28;19928;-60
2022/04/07 11:08:21;;;;;;;;;;;;;;;6.18;70.23;97669.00;5092781;28;19935;-59
2022/04/07 11:10:48;;;;;;;;;;;;;;;6.26;70.21;97666.69;5091811;28;20443;-59
2022/04/07 11:13:14;;;;;;;;;;;;;;;6.50;69.58;97658.44;5092862;28;20389;-59
2022/04/07 11:15:42;;;;;;;;;;;;;;;6.59;68.82;97657.75;5089900;28;19928;-59
2022/04/07 11:18:28;;;;;;;;;;;;;;;6.66;69.00;97659.38;5091546;28;20032;-59
2022/04/07 11:21:02;;;;;;;;;;;;;;;6.74;67.81;97654.41;5091180;28;20456;-59
2022/04/07 11:23:37;;;;;;;;;;;;;;;7.01;68.53;97654.28;5091504;28;19935;-60
2022/04/07 11:26:20;;;;;;;;;;;;;;;7.19;66.41;97650.41;5092270;28;19928;-57
2022/04/07 11:28:59;;;;;;;;;;;;;;;7.30;66.74;97656.53;5090884;28;19931;-58
2022/04/07 11:31:41;;;;;;;;;;;;;;;7.60;67.02;97647.13;5080772;28;19935;-56
2022/04/07 11:34:25;;;;;;;;;;;;;;;7.96;65.98;97651.38;5068651;28;20018;-57
2022/04/07 11:36:51;;;;;;;;;;;;;;;8.24;65.80;97653.78;5051777;28;19973;-57
2022/04/07 11:39:17;;;;;;;;;;;;;;;8.21;63.85;97649.84;5071998;28;19936;-60
2022/04/07 11:41:43;;;;;;;;;;;;;;;8.30;64.40;97648.25;5050121;28;19989;-61
2022/04/07 11:44:10;;;;;;;;;;;;;;;8.39;63.37;97644.03;5071318;28;19924;-61
2022/04/07 11:46:35;;;;;;;;;;;;;;;8.46;63.86;97640.34;5092646;28;19928;-60
2022/04/07 11:49:01;;;;;;;;;;;;;;;8.43;62.77;97646.16;5092078;28;19924;-62
2022/04/07 11:51:26;;;;;;;;;;;;;;;8.29;64.37;97645.84;5073617;28;19967;-60
2022/04/07 11:53:53;;;;;;;;;;;;;;;8.44;64.39;97653.00;5091096;28;20007;-61
2022/04/07 11:56:20;;;;;;;;;;;;;;;8.32;64.01;97646.09;5091310;28;19935;-61
2022/04/07 11:58:49;;;;;;;;;;;;;;;8.25;64.53;97644.81;5089326;28;20004;-61
2022/04/07 12:01:15;;;;;;;;;;;;;;;8.28;65.42;97644.28;5084540;28;19928;-59
2022/04/07 12:03:41;;;;;;;;;;;;;;;8.44;63.96;97643.22;5062732;28;20459;-59
2022/04/07 12:06:07;;;;;;;;;;;;;;;8.47;63.85;97645.38;5052709;28;19954;-60
2022/04/07 12:08:32;;;;;;;;;;;;;;;8.51;63.66;97653.53;5073799;28;19924;-63
2022/04/07 12:10:58;;;;;;;;;;;;;;;8.73;64.60;97659.28;5090652;28;19932;-60
2022/04/07 12:13:23;;;;;;;;;;;;;;;9.07;63.07;97656.06;5089450;28;20015;-60
2022/04/07 12:15:49;;;;;;;;;;;;;;;9.07;63.34;97648.91;5089701;28;19928;-59
2022/04/07 12:18:23;;;;;;;;;;;;;;;9.23;62.63;97654.13;5089186;28;19982;-60
2022/04/07 12:20:55;;;;;;;;;;;;;;;9.19;62.98;97645.16;5090118;28;20380;-59
2022/04/07 12:23:25;;;;;;;;;;;;;;;9.25;61.99;97641.44;5067746;28;20112;-60
2022/04/07 12:25:56;;;;;;;;;;;;;;;9.47;62.58;97644.53;5070912;28;20393;-59
2022/04/07 12:28:21;;;;;;;;;;;;;;;9.68;61.56;97639.13;5074936;28;19932;-57
2022/04/07 12:30:47;;;;;;;;;;;;;;;9.60;61.77;97639.69;5078082;28;20385;-62
2022/04/07 12:33:31;;;;;;;;;;;;;;;9.59;61.21;97636.25;5073970;28;19930;-63
2022/04/07 12:35:56;;;;;;;;;;;;;;;9.49;61.62;97633.66;5092126;28;20026;-62
2022/04/07 12:38:22;;;;;;;;;;;;;;;9.52;62.70;97638.41;5088370;28;20014;-61
2022/04/07 12:40:49;;;;;;;;;;;;;;;9.49;61.36;97629.16;5090364;28;20409;-64
2022/04/07 12:43:14;;;;;;;;;;;;;;;9.62;61.73;97630.41;5091024;28;19981;-63
2022/04/07 12:45:59;;;;;;;;;;;;;;;9.72;61.89;97630.34;5084834;28;19928;-61
2022/04/07 12:48:27;;;;;;;;;;;;;;;9.83;61.51;97622.34;5055877;28;19924;-62
2022/04/07 12:50:52;;;;;;;;;;;;;;;9.84;61.13;97629.22;5066499;28;19928;-62
2022/04/07 12:53:29;;;;;;;;;;;;;;;9.78;61.03;97618.66;5070636;28;19924;-62